Time;durP1;ratioP1;P1;durP2;ratioP2;P2;SDS_P1;SDS_P2;PMS_P1;PMS_P2;Temp;Humidity;BMP_temperature;BMP_pressure;BME280_temperature;BME280_humidity;BME280_pressure;Samples;Min_cycle;Max_cycle;Signal;HPM_P1;HPM_P2
2021/07/15 00:01:11;;;;;;;;;;;;;;;16.66;100.00;100413.72;5070279;28;19925;-68
2021/07/15 00:03:37;;;;;;;;;;;;;;;16.71;100.00;100421.41;5071836;28;19970;-68
2021/07/15 00:06:04;;;;;;;;;;;;;;;16.76;100.00;100424.47;5071383;28;19925;-69
2021/07/15 00:08:30;;;;;;;;;;;;;;;16.81;100.00;100416.59;5071716;28;20019;-68
2021/07/15 00:10:57;;;;;;;;;;;;;;;16.83;100.00;100414.53;5070260;28;20345;-68
2021/07/15 00:13:24;;;;;;;;;;;;;;;16.83;100.00;100414.53;5071612;28;19963;-68
2021/07/15 00:15:52;;;;;;;;;;;;;;;16.82;100.00;100414.69;5070175;28;19925;-68
2021/07/15 00:18:21;;;;;;;;;;;;;;;16.77;100.00;100415.25;5071350;28;19928;-68
2021/07/15 00:20:49;;;;;;;;;;;;;;;16.71;100.00;100427.72;5071430;28;20295;-68
2021/07/15 00:23:16;;;;;;;;;;;;;;;16.68;100.00;100424.50;5071266;28;19979;-68
2021/07/15 00:25:42;;;;;;;;;;;;;;;16.62;100.00;100426.03;5071499;28;19955;-68
2021/07/15 00:28:09;;;;;;;;;;;;;;;16.57;100.00;100426.53;5071226;28;19960;-68
2021/07/15 00:30:35;;;;;;;;;;;;;;;16.52;100.00;100426.19;5071281;28;19956;-69
2021/07/15 00:33:02;;;;;;;;;;;;;;;16.48;100.00;100421.25;5069684;28;19928;-68
2021/07/15 00:35:30;;;;;;;;;;;;;;;16.40;100.00;100422.94;5071424;28;20009;-68
2021/07/15 00:37:56;;;;;;;;;;;;;;;16.34;100.00;100436.44;5070887;28;19978;-68
2021/07/15 00:40:22;;;;;;;;;;;;;;;16.30;100.00;100427.72;5070982;28;20391;-69
2021/07/15 00:42:49;;;;;;;;;;;;;;;16.31;100.00;100434.91;5071150;28;19967;-68
2021/07/15 00:45:17;;;;;;;;;;;;;;;16.36;100.00;100434.41;5070951;28;19928;-68
2021/07/15 00:47:43;;;;;;;;;;;;;;;16.36;100.00;100432.50;5071136;28;20504;-68
2021/07/15 00:50:10;;;;;;;;;;;;;;;16.41;100.00;100434.75;5070893;28;20379;-68
2021/07/15 00:52:38;;;;;;;;;;;;;;;16.45;100.00;100435.25;5071008;28;19925;-68
2021/07/15 00:55:05;;;;;;;;;;;;;;;16.46;100.00;100432.38;5070892;28;20385;-68
2021/07/15 00:57:32;;;;;;;;;;;;;;;16.44;100.00;100436.31;5070483;28;19924;-68
2021/07/15 00:59:58;;;;;;;;;;;;;;;16.39;100.00;100459.59;5071010;28;19999;-68
2021/07/15 01:02:24;;;;;;;;;;;;;;;16.35;100.00;100462.81;5069521;28;20388;-69
2021/07/15 01:04:51;;;;;;;;;;;;;;;16.29;100.00;100478.06;5072144;28;20001;-68
2021/07/15 01:07:17;;;;;;;;;;;;;;;16.29;100.00;100477.16;5074193;28;19925;-69
2021/07/15 01:09:45;;;;;;;;;;;;;;;16.26;100.00;100483.00;5074474;28;19928;-69
2021/07/15 01:12:15;;;;;;;;;;;;;;;16.18;100.00;100471.00;5074326;28;20030;-69
2021/07/15 01:14:46;;;;;;;;;;;;;;;16.13;100.00;100465.19;5074235;28;19955;-69
2021/07/15 01:17:17;;;;;;;;;;;;;;;16.07;100.00;100468.56;5074109;28;19932;-68
2021/07/15 01:20:02;;;;;;;;;;;;;;;16.01;100.00;100472.00;5073991;28;19936;-68
2021/07/15 01:22:30;;;;;;;;;;;;;;;15.96;100.00;100480.69;5054085;28;19960;-68
2021/07/15 01:25:20;;;;;;;;;;;;;;;15.90;100.00;100478.63;5054240;28;19925;-68
2021/07/15 01:27:59;;;;;;;;;;;;;;;15.84;100.00;100477.41;5054059;28;20338;-69
2021/07/15 01:30:30;;;;;;;;;;;;;;;15.73;100.00;100469.47;5053798;28;19931;-69
2021/07/15 01:33:01;;;;;;;;;;;;;;;15.64;100.00;100481.41;5053704;28;20017;-69
2021/07/15 01:35:29;;;;;;;;;;;;;;;15.56;100.00;100477.56;5053360;28;19925;-68
2021/07/15 01:37:58;;;;;;;;;;;;;;;15.49;100.00;100483.88;5053689;28;19971;-68
2021/07/15 01:40:27;;;;;;;;;;;;;;;15.43;100.00;100477.16;5053815;28;19955;-69
2021/07/15 01:42:55;;;;;;;;;;;;;;;15.40;100.00;100486.56;5053666;28;20027;-69
2021/07/15 01:45:22;;;;;;;;;;;;;;;15.35;100.00;100482.59;5053988;28;19956;-68
2021/07/15 01:47:49;;;;;;;;;;;;;;;15.30;100.00;100480.34;5053481;28;19964;-69
2021/07/15 01:50:16;;;;;;;;;;;;;;;15.28;100.00;100476.91;5052289;28;20428;-68
2021/07/15 01:52:42;;;;;;;;;;;;;;;15.25;100.00;100469.03;5052965;28;19975;-69
2021/07/15 01:55:10;;;;;;;;;;;;;;;15.26;100.00;100478.97;5053631;28;19967;-68
2021/07/15 01:57:38;;;;;;;;;;;;;;;15.28;100.00;100470.59;5053465;28;20011;-70
2021/07/15 02:00:05;;;;;;;;;;;;;;;15.26;100.00;100462.56;5053491;28;19929;-70
2021/07/15 02:02:33;;;;;;;;;;;;;;;15.24;100.00;100461.84;5053288;28;19931;-70
2021/07/15 02:05:01;;;;;;;;;;;;;;;15.20;100.00;100457.72;5053342;28;20373;-70
2021/07/15 02:07:29;;;;;;;;;;;;;;;15.12;100.00;100453.06;5053338;28;19925;-70
2021/07/15 02:09:56;;;;;;;;;;;;;;;15.06;100.00;100451.84;5054875;28;19925;-68
2021/07/15 02:12:23;;;;;;;;;;;;;;;15.03;100.00;100457.63;5052303;28;19990;-70
2021/07/15 02:14:52;;;;;;;;;;;;;;;15.02;100.00;100463.28;5052901;28;20458;-70
2021/07/15 02:17:19;;;;;;;;;;;;;;;14.98;100.00;100464.56;5053191;28;20411;-68
2021/07/15 02:19:46;;;;;;;;;;;;;;;14.94;100.00;100458.59;5053320;28;19983;-71
2021/07/15 02:22:15;;;;;;;;;;;;;;;14.94;100.00;100461.31;5052911;28;19969;-71
2021/07/15 02:24:44;;;;;;;;;;;;;;;14.90;100.00;100455.31;5052911;28;19925;-70
2021/07/15 02:27:11;;;;;;;;;;;;;;;14.84;100.00;100449.63;5052727;28;20049;-68
2021/07/15 02:29:37;;;;;;;;;;;;;;;14.79;100.00;100449.25;5052775;28;20364;-70
2021/07/15 02:32:05;;;;;;;;;;;;;;;14.76;100.00;100455.88;5052393;28;19972;-69
2021/07/15 02:34:34;;;;;;;;;;;;;;;14.72;100.00;100449.91;5052722;28;19956;-69
2021/07/15 02:37:01;;;;;;;;;;;;;;;14.69;100.00;100458.38;5052456;28;20367;-69
2021/07/15 02:39:29;;;;;;;;;;;;;;;14.65;100.00;100462.44;5053020;28;19964;-69
2021/07/15 02:41:55;;;;;;;;;;;;;;;14.62;100.00;100475.53;5052799;28;19925;-69
2021/07/15 02:44:21;;;;;;;;;;;;;;;14.59;100.00;100464.94;5052697;28;20350;-69
2021/07/15 02:46:48;;;;;;;;;;;;;;;14.60;100.00;100466.66;5052208;28;20023;-69
2021/07/15 02:49:14;;;;;;;;;;;;;;;14.63;100.00;100469.97;5051232;28;20443;-69
2021/07/15 02:51:40;;;;;;;;;;;;;;;14.71;100.00;100474.63;5052448;28;20015;-69
2021/07/15 02:54:07;;;;;;;;;;;;;;;14.69;100.00;100476.66;5052275;28;20023;-69
2021/07/15 02:56:37;;;;;;;;;;;;;;;14.64;100.00;100473.53;5052269;28;19957;-69
2021/07/15 02:59:09;;;;;;;;;;;;;;;14.60;100.00;100469.38;5052172;28;20056;-69
2021/07/15 03:01:39;;;;;;;;;;;;;;;14.55;100.00;100470.72;5052151;28;19960;-69
2021/07/15 03:04:11;;;;;;;;;;;;;;;14.57;100.00;100470.56;5051908;28;20359;-69
2021/07/15 03:06:40;;;;;;;;;;;;;;;14.54;100.00;100471.72;5052223;28;19956;-69
2021/07/15 03:09:09;;;;;;;;;;;;;;;14.51;100.00;100477.50;5052014;28;19960;-69
2021/07/15 03:11:40;;;;;;;;;;;;;;;14.48;100.00;100480.53;5052006;28;20327;-69
2021/07/15 03:14:07;;;;;;;;;;;;;;;14.44;100.00;100484.59;5051952;28;20024;-68
2021/07/15 03:16:34;;;;;;;;;;;;;;;14.40;100.00;100477.72;5052110;28;19937;-70
2021/07/15 03:19:03;;;;;;;;;;;;;;;14.40;100.00;100480.44;5051882;28;19925;-68
2021/07/15 03:21:30;;;;;;;;;;;;;;;14.40;100.00;100475.88;5071069;28;20028;-69
2021/07/15 03:23:58;;;;;;;;;;;;;;;14.45;100.00;100486.31;5056212;28;19925;-69
2021/07/15 03:26:24;;;;;;;;;;;;;;;14.46;100.00;100487.19;5071700;28;19982;-69
2021/07/15 03:28:53;;;;;;;;;;;;;;;14.45;100.00;100483.56;5070957;28;19924;-69
2021/07/15 03:31:22;;;;;;;;;;;;;;;14.45;100.00;100477.28;5072564;28;19924;-68
2021/07/15 03:33:50;;;;;;;;;;;;;;;14.48;100.00;100476.94;5071601;28;19929;-68
2021/07/15 03:36:17;;;;;;;;;;;;;;;14.49;100.00;100484.97;5086305;28;20027;-68
2021/07/15 03:38:44;;;;;;;;;;;;;;;14.52;100.00;100476.50;5091567;28;19924;-68
2021/07/15 03:41:11;;;;;;;;;;;;;;;14.52;100.00;100471.03;5075975;28;20386;-69
2021/07/15 03:43:40;;;;;;;;;;;;;;;14.56;100.00;100472.44;5080698;28;19955;-68
2021/07/15 03:46:08;;;;;;;;;;;;;;;14.60;100.00;100453.00;5073135;28;20003;-70
2021/07/15 03:48:35;;;;;;;;;;;;;;;14.69;100.00;100460.28;5071757;28;19971;-70
2021/07/15 03:51:02;;;;;;;;;;;;;;;14.74;100.00;100455.19;5085272;28;20031;-71
2021/07/15 03:53:29;;;;;;;;;;;;;;;14.83;100.00;100448.78;5089900;28;19985;-70
2021/07/15 03:55:56;;;;;;;;;;;;;;;14.99;100.00;100458.97;5086259;28;19928;-69
2021/07/15 03:58:23;;;;;;;;;;;;;;;15.10;100.00;100454.25;5071186;28;20361;-70
2021/07/15 04:00:50;;;;;;;;;;;;;;;15.23;100.00;100452.81;5071565;28;20368;-70
2021/07/15 04:03:19;;;;;;;;;;;;;;;15.38;100.00;100460.41;5070970;28;20435;-69
2021/07/15 04:05:46;;;;;;;;;;;;;;;15.49;100.00;100457.38;5071557;28;19928;-71
2021/07/15 04:08:12;;;;;;;;;;;;;;;15.65;100.00;100453.88;5070032;28;20323;-68
2021/07/15 04:10:39;;;;;;;;;;;;;;;15.77;100.00;100456.28;5071720;28;20467;-69
2021/07/15 04:13:06;;;;;;;;;;;;;;;15.88;100.00;100466.97;5071527;28;20437;-71
2021/07/15 04:15:39;;;;;;;;;;;;;;;16.02;100.00;100466.34;5071537;28;19924;-71
2021/07/15 04:18:05;;;;;;;;;;;;;;;16.13;100.00;100467.03;5071216;28;19974;-70
2021/07/15 04:20:34;;;;;;;;;;;;;;;16.21;100.00;100465.19;5071378;28;20401;-71
2021/07/15 04:23:02;;;;;;;;;;;;;;;16.30;100.00;100466.06;5071259;28;19987;-70
2021/07/15 04:25:29;;;;;;;;;;;;;;;16.42;100.00;100471.22;5071273;28;20447;-70
2021/07/15 04:27:57;;;;;;;;;;;;;;;16.49;100.00;100477.72;5071272;28;19971;-71
2021/07/15 04:30:24;;;;;;;;;;;;;;;16.54;100.00;100478.94;5071251;28;19981;-70
2021/07/15 04:32:52;;;;;;;;;;;;;;;16.60;100.00;100471.91;5071037;28;20475;-70
2021/07/15 04:35:20;;;;;;;;;;;;;;;16.68;100.00;100471.06;5071146;28;20015;-70
2021/07/15 04:37:48;;;;;;;;;;;;;;;16.73;100.00;100476.91;5070922;28;20070;-71
2021/07/15 04:40:16;;;;;;;;;;;;;;;16.74;100.00;100463.03;5074698;28;19956;-71
2021/07/15 04:42:43;;;;;;;;;;;;;;;16.79;100.00;100469.88;5074769;28;20369;-70
2021/07/15 04:45:11;;;;;;;;;;;;;;;16.80;100.00;100474.34;5074637;28;19924;-71
2021/07/15 04:47:39;;;;;;;;;;;;;;;16.81;100.00;100470.53;5074356;28;20449;-70
2021/07/15 04:50:06;;;;;;;;;;;;;;;16.84;100.00;100472.97;5074464;28;19959;-70
2021/07/15 04:52:33;;;;;;;;;;;;;;;16.81;100.00;100474.16;5074610;28;19963;-70
2021/07/15 04:55:01;;;;;;;;;;;;;;;16.85;100.00;100477.38;5080206;28;20100;-70
2021/07/15 04:57:28;;;;;;;;;;;;;;;16.88;100.00;100477.06;5080839;28;20379;-71
2021/07/15 04:59:54;;;;;;;;;;;;;;;16.94;100.00;100479.13;5074877;28;19929;-71
2021/07/15 05:02:21;;;;;;;;;;;;;;;17.01;100.00;100476.56;5094816;28;19973;-71
2021/07/15 05:04:48;;;;;;;;;;;;;;;17.06;100.00;100477.78;5088078;28;19964;-71
2021/07/15 05:07:14;;;;;;;;;;;;;;;17.13;100.00;100477.94;5074083;28;20435;-71
2021/07/15 05:09:40;;;;;;;;;;;;;;;17.20;100.00;100478.09;5073910;28;19924;-71
2021/07/15 05:12:09;;;;;;;;;;;;;;;17.31;100.00;100477.72;5073497;28;19925;-71
2021/07/15 05:14:41;;;;;;;;;;;;;;;17.48;100.00;100483.19;5074695;28;19960;-71
2021/07/15 05:17:07;;;;;;;;;;;;;;;17.67;100.00;100482.75;5073898;28;19924;-71
2021/07/15 05:19:33;;;;;;;;;;;;;;;17.75;100.00;100476.38;5075022;28;19931;-70
2021/07/15 05:21:59;;;;;;;;;;;;;;;17.94;100.00;100477.88;5079966;28;19970;-70
2021/07/15 05:24:26;;;;;;;;;;;;;;;17.99;100.00;100475.44;5074048;28;19968;-70
2021/07/15 05:26:52;;;;;;;;;;;;;;;18.09;100.00;100469.72;5073620;28;20031;-70
2021/07/15 05:29:20;;;;;;;;;;;;;;;18.17;100.00;100466.06;5064615;28;20050;-70
2021/07/15 05:31:46;;;;;;;;;;;;;;;18.12;100.00;100458.38;5053593;28;19976;-71
2021/07/15 05:34:14;;;;;;;;;;;;;;;18.27;100.00;100465.88;5079550;28;20384;-70
2021/07/15 05:36:40;;;;;;;;;;;;;;;18.37;100.00;100470.09;5073698;28;19924;-70
2021/07/15 05:39:07;;;;;;;;;;;;;;;18.54;100.00;100483.69;5090573;28;19974;-70
2021/07/15 05:41:33;;;;;;;;;;;;;;;18.76;100.00;100492.13;5093935;28;19969;-70
2021/07/15 05:44:00;;;;;;;;;;;;;;;18.89;100.00;100485.00;5077872;28;19931;-70
2021/07/15 05:46:27;;;;;;;;;;;;;;;19.07;100.00;100486.56;5073349;28;20019;-70
2021/07/15 05:48:53;;;;;;;;;;;;;;;19.32;100.00;100483.56;5078592;28;19960;-70
2021/07/15 05:51:20;;;;;;;;;;;;;;;19.74;100.00;100488.41;5072643;28;20043;-70
2021/07/15 05:53:46;;;;;;;;;;;;;;;20.06;100.00;100478.03;5079451;28;20054;-70
2021/07/15 05:56:12;;;;;;;;;;;;;;;20.17;100.00;100473.94;5073372;28;19964;-70
2021/07/15 05:58:38;;;;;;;;;;;;;;;20.44;100.00;100474.22;5083275;28;19967;-70
2021/07/15 06:01:05;;;;;;;;;;;;;;;20.48;100.00;100470.03;5076953;28;19979;-70
2021/07/15 06:03:32;;;;;;;;;;;;;;;20.32;100.00;100462.84;5071728;28;20011;-70
2021/07/15 06:05:59;;;;;;;;;;;;;;;20.28;100.00;100466.22;5076957;28;19975;-69
2021/07/15 06:08:25;;;;;;;;;;;;;;;20.28;100.00;100469.81;5074320;28;19963;-70
2021/07/15 06:10:51;;;;;;;;;;;;;;;20.06;100.00;100464.28;5085031;28;19931;-69
2021/07/15 06:13:18;;;;;;;;;;;;;;;20.02;100.00;100462.94;5093218;28;20349;-69
2021/07/15 06:15:44;;;;;;;;;;;;;;;19.96;100.00;100468.38;5088861;28;20023;-69
2021/07/15 06:18:10;;;;;;;;;;;;;;;20.05;100.00;100479.09;5072753;28;20348;-69
2021/07/15 06:20:38;;;;;;;;;;;;;;;20.18;100.00;100485.81;5073429;28;19963;-69
2021/07/15 06:23:05;;;;;;;;;;;;;;;20.30;100.00;100484.25;5072738;28;19952;-69
2021/07/15 06:25:31;;;;;;;;;;;;;;;20.36;100.00;100477.13;5087697;28;20015;-69
2021/07/15 06:27:57;;;;;;;;;;;;;;;20.80;100.00;100475.25;5089451;28;20367;-69
2021/07/15 06:30:24;;;;;;;;;;;;;;;21.37;100.00;100452.13;5073373;28;19978;-69
2021/07/15 06:32:50;;;;;;;;;;;;;;;21.68;100.00;100450.84;5082555;28;20024;-69
2021/07/15 06:35:20;;;;;;;;;;;;;;;22.38;100.00;100438.78;5072831;28;19936;-69
2021/07/15 06:37:50;;;;;;;;;;;;;;;22.78;100.00;100440.78;5083287;28;19963;-69
2021/07/15 06:40:17;;;;;;;;;;;;;;;22.87;100.00;100431.19;5092749;28;19927;-69
2021/07/15 06:42:43;;;;;;;;;;;;;;;22.50;100.00;100431.59;5089345;28;19963;-69
2021/07/15 06:45:11;;;;;;;;;;;;;;;22.50;100.00;100433.50;5088835;28;20423;-69
2021/07/15 06:47:37;;;;;;;;;;;;;;;22.69;100.00;100440.16;5072490;28;19928;-69
2021/07/15 06:50:04;;;;;;;;;;;;;;;22.98;100.00;100440.75;5073381;28;20021;-69
2021/07/15 06:52:30;;;;;;;;;;;;;;;23.32;100.00;100447.16;5072056;28;20011;-69
2021/07/15 06:54:58;;;;;;;;;;;;;;;23.33;100.00;100446.06;5072593;28;19963;-69
2021/07/15 06:57:25;;;;;;;;;;;;;;;23.49;100.00;100448.41;5091170;28;19924;-69
2021/07/15 06:59:51;;;;;;;;;;;;;;;23.92;100.00;100451.69;5090879;28;19924;-69
2021/07/15 07:02:17;;;;;;;;;;;;;;;24.01;100.00;100454.00;5081048;28;20011;-69
2021/07/15 07:04:44;;;;;;;;;;;;;;;24.17;100.00;100454.56;5071978;28;20020;-69
2021/07/15 07:07:10;;;;;;;;;;;;;;;24.10;100.00;100454.59;5073008;28;19962;-69
2021/07/15 07:09:36;;;;;;;;;;;;;;;23.86;100.00;100458.94;5071984;28;19956;-69
2021/07/15 07:12:04;;;;;;;;;;;;;;;23.70;100.00;100465.81;5078025;28;20039;-69
2021/07/15 07:14:31;;;;;;;;;;;;;;;23.37;100.00;100472.25;5081935;28;19971;-69
2021/07/15 07:16:57;;;;;;;;;;;;;;;23.01;100.00;100466.09;5071531;28;19924;-69
2021/07/15 07:19:23;;;;;;;;;;;;;;;22.84;100.00;100471.19;5071695;28;19928;-69
2021/07/15 07:21:49;;;;;;;;;;;;;;;22.88;100.00;100466.09;5074740;28;19959;-69
2021/07/15 07:24:16;;;;;;;;;;;;;;;22.76;100.00;100471.41;5092223;28;20458;-69
2021/07/15 07:26:42;;;;;;;;;;;;;;;22.78;100.00;100474.81;5090013;28;19956;-69
2021/07/15 07:29:10;;;;;;;;;;;;;;;22.83;100.00;100469.50;5070703;28;19924;-69
2021/07/15 07:31:36;;;;;;;;;;;;;;;23.04;100.00;100464.84;5073055;28;19967;-69
2021/07/15 07:34:02;;;;;;;;;;;;;;;23.09;100.00;100459.50;5071486;28;19924;-69
2021/07/15 07:36:29;;;;;;;;;;;;;;;22.93;100.00;100468.22;5072490;28;20376;-69
2021/07/15 07:38:55;;;;;;;;;;;;;;;22.88;100.00;100474.41;5073419;28;19982;-69
2021/07/15 07:41:21;;;;;;;;;;;;;;;22.71;100.00;100471.19;5091680;28;19964;-69
2021/07/15 07:43:48;;;;;;;;;;;;;;;22.71;100.00;100463.72;5089476;28;20470;-69
2021/07/15 07:46:15;;;;;;;;;;;;;;;23.17;100.00;100462.09;5087046;28;20066;-69
2021/07/15 07:48:42;;;;;;;;;;;;;;;23.67;100.00;100460.72;5085635;28;19935;-69
2021/07/15 07:51:08;;;;;;;;;;;;;;;24.48;100.00;100456.53;5071452;28;19925;-68
2021/07/15 07:53:34;;;;;;;;;;;;;;;24.68;100.00;100459.19;5072172;28;20415;-69
2021/07/15 07:56:01;;;;;;;;;;;;;;;25.19;100.00;100450.88;5071479;28;20007;-69
2021/07/15 07:58:27;;;;;;;;;;;;;;;25.22;100.00;100450.41;5072246;28;19928;-69
2021/07/15 08:00:53;;;;;;;;;;;;;;;25.52;100.00;100445.00;5075774;28;20008;-69
2021/07/15 08:03:21;;;;;;;;;;;;;;;26.05;100.00;100446.28;5072645;28;20024;-69
2021/07/15 08:05:48;;;;;;;;;;;;;;;26.42;100.00;100450.94;5086756;28;19997;-69
2021/07/15 08:08:16;;;;;;;;;;;;;;;26.69;100.00;100444.97;5089699;28;20387;-69
2021/07/15 08:10:43;;;;;;;;;;;;;;;27.04;100.00;100433.06;5078084;28;19948;-69
2021/07/15 08:13:09;;;;;;;;;;;;;;;26.74;100.00;100428.44;5072395;28;19925;-69
2021/07/15 08:15:35;;;;;;;;;;;;;;;26.36;100.00;100421.28;5076403;28;20303;-69
2021/07/15 08:18:02;;;;;;;;;;;;;;;26.02;100.00;100426.44;5074945;28;20460;-69
2021/07/15 08:20:30;;;;;;;;;;;;;;;26.70;100.00;100429.97;5084740;28;19967;-69
2021/07/15 08:22:56;;;;;;;;;;;;;;;27.11;100.00;100425.44;5095280;28;19951;-69
2021/07/15 08:25:23;;;;;;;;;;;;;;;27.00;100.00;100426.28;5093838;28;19986;-69
2021/07/15 08:27:50;;;;;;;;;;;;;;;27.76;100.00;100429.13;5079129;28;19974;-69
2021/07/15 08:30:17;;;;;;;;;;;;;;;27.89;100.00;100440.00;5074796;28;19967;-69
2021/07/15 08:32:43;;;;;;;;;;;;;;;27.85;100.00;100441.59;5075112;28;19968;-69
2021/07/15 08:35:10;;;;;;;;;;;;;;;27.79;100.00;100447.31;5074776;28;20455;-69
2021/07/15 08:37:37;;;;;;;;;;;;;;;28.26;100.00;100454.72;5077144;28;20311;-69
2021/07/15 08:40:04;;;;;;;;;;;;;;;28.17;100.00;100454.28;5074807;28;20365;-69
2021/07/15 08:42:30;;;;;;;;;;;;;;;27.84;100.00;100436.28;5089361;28;20342;-69
2021/07/15 08:44:59;;;;;;;;;;;;;;;27.61;100.00;100448.34;5088202;28;19978;-69
2021/07/15 08:47:25;;;;;;;;;;;;;;;27.29;100.00;100451.47;5073986;28;20323;-69
2021/07/15 08:49:52;;;;;;;;;;;;;;;26.72;100.00;100456.50;5075953;28;20384;-69
2021/07/15 08:52:18;;;;;;;;;;;;;;;26.40;100.00;100450.31;5074232;28;19955;-69
2021/07/15 08:54:59;;;;;;;;;;;;;;;26.27;100.00;100454.16;5077443;28;19963;-68
2021/07/15 08:57:25;;;;;;;;;;;;;;;26.09;100.00;100449.47;5094668;28;20057;-69
2021/07/15 08:59:51;;;;;;;;;;;;;;;25.99;100.00;100454.69;5093332;28;19928;-68
2021/07/15 09:02:19;;;;;;;;;;;;;;;26.26;100.00;100454.38;5082900;28;20059;-69
2021/07/15 09:04:45;;;;;;;;;;;;;;;26.20;100.00;100461.72;5074421;28;19977;-69
2021/07/15 09:07:11;;;;;;;;;;;;;;;27.49;100.00;100465.06;5073775;28;19982;-69
2021/07/15 09:09:38;;;;;;;;;;;;;;;27.69;100.00;100465.53;5074351;28;19932;-69
2021/07/15 09:12:06;;;;;;;;;;;;;;;28.29;100.00;100473.75;5073546;28;20342;-69
2021/07/15 09:14:43;;;;;;;;;;;;;;;28.33;100.00;100474.97;5074213;28;19924;-69
2021/07/15 09:17:09;;;;;;;;;;;;;;;28.29;100.00;100484.91;5065227;28;19994;-69
2021/07/15 09:19:38;;;;;;;;;;;;;;;29.09;100.00;100487.78;5090480;28;20059;-69
2021/07/15 09:22:07;;;;;;;;;;;;;;;29.56;100.00;100479.88;5074042;28;20369;-69
2021/07/15 09:24:36;;;;;;;;;;;;;;;29.34;100.00;100487.38;5091359;28;20008;-69
2021/07/15 09:27:11;;;;;;;;;;;;;;;29.85;100.00;100481.66;5076235;28;19931;-69
2021/07/15 09:29:37;;;;;;;;;;;;;;;29.32;100.00;100479.25;5076594;28;20020;-69
2021/07/15 09:32:04;;;;;;;;;;;;;;;28.62;100.00;100486.97;5073617;28;19932;-69
2021/07/15 09:34:31;;;;;;;;;;;;;;;29.42;100.00;100483.31;5077385;28;19972;-69
2021/07/15 09:36:58;;;;;;;;;;;;;;;29.71;100.00;100478.41;5079134;28;20386;-69
2021/07/15 09:39:25;;;;;;;;;;;;;;;30.13;100.00;100471.41;5093901;28;20010;-68
2021/07/15 09:42:06;;;;;;;;;;;;;;;29.69;100.00;100477.81;5079997;28;20027;-69
2021/07/15 09:44:35;;;;;;;;;;;;;;;28.60;100.00;100486.34;5074929;28;20619;-69
2021/07/15 09:47:01;;;;;;;;;;;;;;;27.84;100.00;100492.03;5076007;28;19931;-68
2021/07/15 09:49:30;;;;;;;;;;;;;;;28.48;100.00;100493.94;5092506;28;19952;-69
2021/07/15 09:51:58;;;;;;;;;;;;;;;28.70;100.00;100496.88;5087720;28;20374;-69
2021/07/15 09:54:24;;;;;;;;;;;;;;;28.25;100.00;100492.06;5073500;28;20387;-69
2021/07/15 09:56:50;;;;;;;;;;;;;;;27.88;100.00;100498.81;5077506;28;19985;-69
2021/07/15 09:59:17;;;;;;;;;;;;;;;27.39;100.00;100496.31;5093116;28;19962;-69
2021/07/15 10:01:45;;;;;;;;;;;;;;;27.16;100.00;100492.38;5091733;28;20019;-68
2021/07/15 10:04:12;;;;;;;;;;;;;;;27.06;100.00;100494.94;5075611;28;19924;-69
2021/07/15 10:06:45;;;;;;;;;;;;;;;28.48;100.00;100491.97;5073178;28;20024;-69
2021/07/15 10:09:19;;;;;;;;;;;;;;;30.12;100.00;100490.19;5073021;28;20398;-69
2021/07/15 10:11:46;;;;;;;;;;;;;;;30.60;100.00;100486.81;5073172;28;20024;-68
2021/07/15 10:14:13;;;;;;;;;;;;;;;30.35;100.00;100479.81;5072737;28;20303;-68
2021/07/15 10:16:40;;;;;;;;;;;;;;;30.72;100.00;100479.94;5090986;28;20417;-68
2021/07/15 10:19:09;;;;;;;;;;;;;;;31.21;95.86;100480.94;5086288;28;19924;-68
2021/07/15 10:21:37;;;;;;;;;;;;;;;31.01;93.26;100473.19;5069829;28;19925;-67
2021/07/15 10:24:14;;;;;;;;;;;;;;;31.40;97.31;100475.72;5083643;28;19974;-68
2021/07/15 10:26:42;;;;;;;;;;;;;;;31.48;97.68;100475.25;5070377;28;20008;-68
2021/07/15 10:29:08;;;;;;;;;;;;;;;30.69;99.77;100474.88;5072776;28;20456;-67
2021/07/15 10:31:35;;;;;;;;;;;;;;;28.73;100.00;100486.06;5072786;28;19960;-68
2021/07/15 10:34:02;;;;;;;;;;;;;;;28.04;100.00;100486.09;5074111;28;20027;-67
2021/07/15 10:36:29;;;;;;;;;;;;;;;29.05;100.00;100479.91;5082647;28;19975;-67
2021/07/15 10:38:56;;;;;;;;;;;;;;;30.04;100.00;100487.84;5074490;28;19972;-67
2021/07/15 10:41:24;;;;;;;;;;;;;;;30.57;100.00;100490.13;5085826;28;21533;-68
2021/07/15 10:43:53;;;;;;;;;;;;;;;31.06;96.21;100481.66;5072430;28;20440;-68
2021/07/15 10:46:21;;;;;;;;;;;;;;;31.67;95.41;100484.09;5089095;28;19932;-68
2021/07/15 10:48:48;;;;;;;;;;;;;;;32.09;98.31;100487.91;5073826;28;19928;-68
2021/07/15 10:51:15;;;;;;;;;;;;;;;32.26;90.35;100486.88;5072079;28;20012;-68
2021/07/15 10:53:43;;;;;;;;;;;;;;;31.60;98.08;100493.81;5072233;28;19968;-69
2021/07/15 10:56:09;;;;;;;;;;;;;;;31.07;99.74;100479.69;5072220;28;19971;-68
2021/07/15 10:58:40;;;;;;;;;;;;;;;30.53;95.42;100484.22;5086172;28;20379;-68
2021/07/15 11:01:07;;;;;;;;;;;;;;;30.26;95.23;100486.97;5090088;28;20349;-68
2021/07/15 11:03:33;;;;;;;;;;;;;;;29.63;97.62;100487.25;5081602;28;19958;-68
2021/07/15 11:05:59;;;;;;;;;;;;;;;29.31;100.00;100480.34;5084801;28;19967;-68
2021/07/15 11:09:00;;;;;;;;;;;;;;;29.14;100.00;100483.13;5087647;28;20066;-68
2021/07/15 11:11:33;;;;;;;;;;;;;;;29.16;100.00;100480.91;5029976;28;19925;-67
2021/07/15 11:13:59;;;;;;;;;;;;;;;29.99;100.00;100476.59;5026770;28;19944;-67
2021/07/15 11:16:40;;;;;;;;;;;;;;;30.91;100.00;100478.69;5046188;28;20023;-68
2021/07/15 11:19:07;;;;;;;;;;;;;;;31.13;94.01;100468.25;5071294;28;19985;-66
2021/07/15 11:21:34;;;;;;;;;;;;;;;31.50;89.31;100475.81;5071479;28;19924;-67
2021/07/15 11:24:19;;;;;;;;;;;;;;;31.74;98.17;100468.97;5086475;28;19939;-67
2021/07/15 11:26:47;;;;;;;;;;;;;;;31.60;88.18;100468.56;5086876;28;20013;-66
2021/07/15 11:29:13;;;;;;;;;;;;;;;30.84;93.38;100462.09;5074619;28;19928;-67
2021/07/15 11:31:41;;;;;;;;;;;;;;;30.77;89.36;100467.09;5071073;28;19930;-67
2021/07/15 11:34:07;;;;;;;;;;;;;;;30.02;98.35;100476.88;5077702;28;19924;-68
2021/07/15 11:36:35;;;;;;;;;;;;;;;29.09;100.00;100479.41;5071510;28;20620;-68
2021/07/15 11:39:03;;;;;;;;;;;;;;;28.63;100.00;100487.78;5076113;28;19946;-67
2021/07/15 11:41:43;;;;;;;;;;;;;;;28.06;100.00;100481.97;5082963;28;20425;-67
2021/07/15 11:44:13;;;;;;;;;;;;;;;27.62;100.00;100475.97;5079648;28;20298;-67
2021/07/15 11:46:40;;;;;;;;;;;;;;;27.59;100.00;100484.78;5091187;28;20010;-68
2021/07/15 11:49:18;;;;;;;;;;;;;;;27.55;100.00;100484.44;5089297;28;19931;-69
2021/07/15 11:51:46;;;;;;;;;;;;;;;28.18;100.00;100478.28;5087295;28;20023;-69
2021/07/15 11:54:19;;;;;;;;;;;;;;;29.00;100.00;100470.59;5071236;28;19930;-69
2021/07/15 11:56:47;;;;;;;;;;;;;;;29.56;100.00;100468.69;5074234;28;19928;-69
2021/07/15 11:59:31;;;;;;;;;;;;;;;30.39;100.00;100476.19;5084984;28;20568;-68
2021/07/15 12:02:03;;;;;;;;;;;;;;;30.09;98.03;100476.69;5080816;28;20002;-69
2021/07/15 12:04:49;;;;;;;;;;;;;;;30.13;100.00;100480.69;5069545;28;19964;-69
2021/07/15 12:07:19;;;;;;;;;;;;;;;30.96;100.00;100474.00;5071096;28;19929;-69
2021/07/15 12:09:46;;;;;;;;;;;;;;;31.29;93.10;100459.97;5071306;28;19986;-69
2021/07/15 12:12:12;;;;;;;;;;;;;;;31.27;96.32;100467.78;5070827;28;19982;-68
2021/07/15 12:14:41;;;;;;;;;;;;;;;30.48;100.00;100462.63;5071346;28;19968;-68
2021/07/15 12:17:07;;;;;;;;;;;;;;;31.27;100.00;100456.59;5070008;28;19928;-68
2021/07/15 12:19:33;;;;;;;;;;;;;;;31.62;90.13;100450.38;5071511;28;19971;-69
2021/07/15 12:21:59;;;;;;;;;;;;;;;31.49;89.11;100454.47;5071063;28;19928;-69
2021/07/15 12:24:27;;;;;;;;;;;;;;;30.98;88.61;100445.72;5070059;28;20307;-69
2021/07/15 12:26:55;;;;;;;;;;;;;;;30.72;97.13;100439.91;5070846;28;19924;-69
2021/07/15 12:29:23;;;;;;;;;;;;;;;30.08;100.00;100446.19;5071417;28;19928;-69
2021/07/15 12:31:50;;;;;;;;;;;;;;;29.72;100.00;100444.59;5071274;28;19952;-69